createdAt,value
2019-01-29T00:00:06.557Z,0.80
2019-01-29T00:02:35.234Z,0.80
2019-01-29T00:05:04.516Z,0.70
2019-01-29T00:07:32.949Z,0.60
2019-01-29T00:10:01.359Z,0.60
2019-01-29T00:12:29.858Z,0.50
2019-01-29T00:14:58.264Z,0.50
2019-01-29T00:17:26.710Z,0.40
2019-01-29T00:19:55.120Z,0.50
2019-01-29T00:22:23.559Z,0.60
2019-01-29T00:24:51.987Z,0.70
2019-01-29T00:27:20.425Z,0.80
2019-01-29T00:29:48.853Z,0.90
2019-01-29T00:32:17.265Z,1.10
2019-01-29T00:34:45.672Z,1.20
2019-01-29T00:37:14.088Z,1.20
2019-01-29T00:39:42.510Z,1.30
2019-01-29T00:42:10.942Z,1.30
2019-01-29T00:44:39.345Z,1.40
2019-01-29T00:47:07.769Z,1.50
2019-01-29T00:49:36.184Z,1.50
2019-01-29T00:52:05.049Z,1.60
2019-01-29T00:54:33.464Z,1.70
2019-01-29T00:57:01.882Z,1.70
2019-01-29T00:59:30.297Z,1.60
2019-01-29T01:01:58.772Z,1.70
2019-01-29T01:04:27.200Z,1.70
2019-01-29T01:06:55.605Z,1.70
2019-01-29T01:09:24.036Z,1.70
2019-01-29T01:11:52.441Z,1.70
2019-01-29T01:14:20.929Z,1.70
2019-01-29T01:16:49.340Z,1.60
2019-01-29T01:19:17.756Z,1.60
2019-01-29T01:21:46.169Z,1.60
2019-01-29T01:24:14.592Z,1.50
2019-01-29T01:26:42.997Z,1.60
2019-01-29T01:29:11.416Z,1.50
2019-01-29T01:31:39.976Z,1.60
2019-01-29T01:34:08.394Z,1.60
2019-01-29T01:36:36.812Z,1.60
2019-01-29T01:39:08.156Z,1.70
2019-01-29T01:41:36.552Z,1.70
2019-01-29T01:44:05.037Z,1.70
2019-01-29T01:46:33.450Z,1.70
2019-01-29T01:49:01.888Z,1.80
2019-01-29T01:51:30.299Z,1.80
2019-01-29T01:53:59.695Z,1.90
2019-01-29T01:56:28.097Z,1.90
2019-01-29T01:58:56.524Z,1.90
2019-01-29T02:01:25.016Z,1.80
2019-01-29T02:03:53.428Z,1.80
2019-01-29T02:06:21.829Z,1.90
2019-01-29T02:08:50.288Z,2.00
2019-01-29T02:11:18.672Z,2.10
2019-01-29T02:13:47.093Z,2.10
2019-01-29T02:16:15.510Z,2.10
2019-01-29T02:18:43.926Z,2.10
2019-01-29T02:21:12.351Z,2.10
2019-01-29T02:23:40.779Z,2.10
2019-01-29T02:26:09.180Z,2.10
2019-01-29T02:28:37.596Z,2.00
2019-01-29T02:31:06.067Z,2.00
2019-01-29T02:33:34.491Z,2.00
2019-01-29T02:36:02.912Z,2.00
2019-01-29T02:38:31.360Z,2.10
2019-01-29T02:40:59.772Z,2.10
2019-01-29T02:43:28.202Z,2.10
2019-01-29T02:45:56.608Z,2.20
2019-01-29T02:48:25.047Z,2.30
2019-01-29T02:50:53.457Z,2.30
2019-01-29T02:53:21.881Z,2.20
2019-01-29T02:55:50.286Z,2.30
2019-01-29T02:58:18.723Z,2.40
2019-01-29T03:00:47.126Z,2.40
2019-01-29T03:03:15.586Z,2.40
2019-01-29T03:05:44.033Z,2.40
2019-01-29T03:08:12.440Z,2.40
2019-01-29T03:10:40.872Z,2.40
2019-01-29T03:13:09.289Z,2.50
2019-01-29T03:15:37.708Z,2.50
2019-01-29T03:18:06.180Z,2.30
2019-01-29T03:20:34.603Z,2.30
2019-01-29T03:23:03.008Z,2.30
2019-01-29T03:25:31.462Z,2.20
2019-01-29T03:27:59.870Z,2.30
2019-01-29T03:30:28.313Z,2.30
2019-01-29T03:32:56.786Z,2.30
2019-01-29T03:35:25.207Z,2.20
2019-01-29T03:37:53.627Z,2.30
2019-01-29T03:40:25.168Z,2.30
2019-01-29T03:42:53.724Z,2.20
2019-01-29T03:45:22.498Z,2.20
2019-01-29T03:47:50.920Z,2.20
2019-01-29T03:50:21.378Z,2.20
2019-01-29T03:52:50.225Z,2.10
2019-01-29T03:55:18.708Z,2.10
2019-01-29T03:57:47.284Z,2.00
2019-01-29T04:00:21.048Z,2.00
2019-01-29T04:02:49.463Z,1.80
2019-01-29T04:05:18.126Z,1.80
2019-01-29T04:07:46.547Z,1.90
2019-01-29T04:10:16.485Z,1.90
2019-01-29T04:12:45.749Z,1.90
2019-01-29T04:15:22.249Z,1.90
2019-01-29T04:17:53.735Z,1.90
2019-01-29T04:20:22.334Z,1.90
2019-01-29T04:22:50.759Z,1.90
2019-01-29T04:25:19.231Z,1.90
2019-01-29T04:27:47.637Z,1.80
2019-01-29T04:30:18.315Z,1.80
2019-01-29T04:32:46.727Z,1.80
2019-01-29T04:35:15.249Z,1.90
2019-01-29T04:37:43.912Z,1.90
2019-01-29T04:40:17.118Z,1.80
2019-01-29T04:42:45.686Z,1.80
2019-01-29T04:45:15.756Z,1.90
2019-01-29T04:47:44.392Z,2.00
2019-01-29T04:50:18.240Z,2.00
2019-01-29T04:52:46.723Z,2.10
2019-01-29T04:55:17.178Z,2.20
2019-01-29T04:57:45.675Z,2.20
2019-01-29T05:00:19.510Z,2.30
2019-01-29T05:02:47.919Z,2.30
2019-01-29T05:05:18.281Z,2.40
2019-01-29T05:07:46.764Z,2.40
2019-01-29T05:10:17.320Z,2.50
2019-01-29T05:12:45.744Z,2.50
2019-01-29T05:15:16.208Z,2.50
2019-01-29T05:17:44.689Z,2.60
2019-01-29T05:20:15.963Z,2.60
2019-01-29T05:22:44.600Z,2.70
2019-01-29T05:25:13.170Z,2.70
2019-01-29T05:27:41.673Z,2.70
2019-01-29T05:30:20.763Z,2.80
2019-01-29T05:32:48.938Z,2.80
2019-01-29T05:35:17.499Z,2.80
2019-01-29T05:37:45.903Z,2.90
2019-01-29T05:40:16.419Z,2.90
2019-01-29T05:42:44.916Z,2.90
2019-01-29T05:45:15.471Z,2.90
2019-01-29T05:47:43.889Z,2.80
2019-01-29T05:50:14.532Z,2.80
2019-01-29T05:52:43.438Z,2.80
2019-01-29T05:55:13.678Z,2.80
2019-01-29T05:57:42.183Z,2.80
2019-01-29T06:00:17.173Z,2.70
2019-01-29T06:02:45.590Z,2.80
2019-01-29T06:05:14.546Z,2.70
2019-01-29T06:07:43.007Z,2.70
2019-01-29T06:10:14.354Z,2.60
2019-01-29T06:12:42.773Z,2.70
2019-01-29T06:15:14.100Z,2.70
2019-01-29T06:17:42.514Z,2.70
2019-01-29T06:20:13.820Z,2.80
2019-01-29T06:22:42.572Z,2.80
2019-01-29T06:25:11.066Z,2.70
2019-01-29T06:27:39.473Z,2.70
2019-01-29T06:30:13.347Z,2.70
2019-01-29T06:32:41.770Z,2.70
2019-01-29T06:35:12.812Z,2.60
2019-01-29T06:37:41.263Z,2.60
2019-01-29T06:40:12.804Z,2.60
2019-01-29T06:42:41.261Z,2.60
2019-01-29T06:45:12.428Z,2.60
2019-01-29T06:47:41.190Z,2.60
2019-01-29T06:50:12.609Z,2.60
2019-01-29T06:52:41.047Z,2.70
2019-01-29T06:55:12.685Z,2.70
2019-01-29T06:57:43.062Z,2.60
2019-01-29T07:00:14.630Z,2.50
2019-01-29T07:02:43.772Z,2.50
2019-01-29T07:05:12.304Z,2.50
2019-01-29T07:07:40.731Z,2.50
2019-01-29T07:10:12.383Z,2.50
2019-01-29T07:12:40.793Z,2.50
2019-01-29T07:15:14.051Z,2.50
2019-01-29T07:17:43.450Z,2.50
2019-01-29T07:20:12.382Z,2.50
2019-01-29T07:22:40.804Z,2.40
2019-01-29T07:25:10.756Z,2.40
2019-01-29T07:27:39.187Z,2.40
2019-01-29T07:30:13.558Z,2.40
2019-01-29T07:32:41.969Z,2.40
2019-01-29T07:35:10.532Z,2.50
2019-01-29T07:37:39.085Z,2.50
2019-01-29T07:40:09.773Z,2.50
2019-01-29T07:42:38.238Z,2.60
2019-01-29T07:45:10.268Z,2.60
2019-01-29T07:47:38.688Z,2.50
2019-01-29T07:50:09.638Z,2.70
2019-01-29T07:52:38.128Z,2.70
2019-01-29T07:55:08.969Z,2.70
2019-01-29T07:57:37.396Z,2.70
2019-01-29T08:00:11.821Z,2.70
2019-01-29T08:02:40.557Z,2.80
2019-01-29T08:05:11.105Z,2.90
2019-01-29T08:07:39.538Z,2.90
2019-01-29T08:10:11.486Z,3.00
2019-01-29T08:12:39.919Z,3.00
2019-01-29T08:15:14.257Z,3.20
2019-01-29T08:17:42.751Z,3.20
2019-01-29T08:20:12.988Z,3.30
2019-01-29T08:22:41.412Z,3.30
2019-01-29T08:25:10.771Z,3.40
2019-01-29T08:27:39.267Z,3.50
2019-01-29T08:30:13.620Z,3.60
2019-01-29T08:32:43.058Z,3.60
2019-01-29T08:35:16.335Z,3.70
2019-01-29T08:37:44.769Z,3.80
2019-01-29T08:40:14.909Z,3.90
2019-01-29T08:42:43.325Z,3.90
2019-01-29T08:45:17.630Z,4.00
2019-01-29T08:47:47.280Z,4.10
2019-01-29T08:50:21.194Z,4.10
2019-01-29T08:52:49.687Z,4.20
2019-01-29T08:55:18.429Z,4.30
2019-01-29T08:57:46.920Z,4.20
2019-01-29T09:00:22.496Z,4.30
2019-01-29T09:02:50.972Z,4.30
2019-01-29T09:05:19.448Z,4.40
2019-01-29T09:07:47.866Z,4.60
2019-01-29T09:10:18.113Z,4.50
2019-01-29T09:12:46.532Z,4.50
2019-01-29T09:15:19.122Z,4.50
2019-01-29T09:17:47.881Z,4.60
2019-01-29T09:20:18.253Z,4.50
2019-01-29T09:22:47.654Z,4.50
2019-01-29T09:25:21.050Z,4.40
2019-01-29T09:27:46.276Z,4.30
2019-01-29T09:30:21.524Z,4.30
2019-01-29T09:32:50.082Z,4.00
2019-01-29T09:35:18.484Z,4.10
2019-01-29T09:37:46.923Z,4.30
2019-01-29T09:40:21.180Z,4.40
2019-01-29T09:42:49.980Z,4.40
2019-01-29T09:45:20.301Z,4.60
2019-01-29T09:47:48.788Z,4.60
2019-01-29T09:50:19.935Z,4.70
2019-01-29T09:52:48.678Z,4.90
2019-01-29T09:55:28.196Z,5.00
2019-01-29T09:57:49.481Z,5.10
2019-01-29T10:00:21.721Z,5.20
2019-01-29T10:02:50.244Z,5.30
2019-01-29T10:05:18.661Z,5.30
2019-01-29T10:07:47.128Z,5.40
2019-01-29T10:10:15.980Z,5.40
2019-01-29T10:12:44.524Z,5.40
2019-01-29T10:15:24.796Z,5.50
2019-01-29T10:17:53.537Z,5.50
2019-01-29T10:20:22.021Z,5.40
2019-01-29T10:22:50.560Z,5.50
2019-01-29T10:25:19.420Z,5.40
2019-01-29T10:27:47.910Z,5.30
2019-01-29T10:30:21.401Z,5.40
2019-01-29T10:32:49.955Z,5.50
2019-01-29T10:35:21.423Z,5.60
2019-01-29T10:37:49.966Z,5.70
2019-01-29T10:40:26.059Z,5.80
2019-01-29T10:42:54.997Z,5.80
2019-01-29T10:45:25.372Z,5.80
2019-01-29T10:47:53.768Z,6.00
2019-01-29T10:50:27.815Z,6.00
2019-01-29T10:52:56.472Z,6.20
2019-01-29T10:55:24.971Z,6.00
2019-01-29T10:57:53.555Z,6.20
2019-01-29T11:00:28.060Z,6.30
2019-01-29T11:02:56.554Z,6.20
2019-01-29T11:05:25.055Z,6.20
2019-01-29T11:07:53.463Z,6.40
2019-01-29T11:10:22.233Z,6.60
2019-01-29T11:12:50.660Z,6.70
2019-01-29T11:15:31.984Z,6.80
2019-01-29T11:18:01.121Z,6.70
2019-01-29T11:20:29.704Z,6.60
2019-01-29T11:22:58.104Z,6.30
2019-01-29T11:25:30.547Z,6.30
2019-01-29T11:27:59.126Z,6.20
2019-01-29T11:30:32.115Z,6.10
2019-01-29T11:33:00.520Z,6.00
2019-01-29T11:35:28.932Z,5.90
2019-01-29T11:37:57.473Z,5.70
2019-01-29T11:40:33.148Z,5.70
2019-01-29T11:43:01.608Z,5.90
2019-01-29T11:45:39.051Z,5.90
2019-01-29T11:48:07.520Z,5.80
2019-01-29T11:50:36.027Z,5.50
2019-01-29T11:53:04.985Z,5.50
2019-01-29T11:55:33.469Z,5.60
2019-01-29T11:58:01.880Z,5.70
2019-01-29T12:00:37.156Z,5.80
2019-01-29T12:03:05.798Z,5.80
2019-01-29T12:05:34.477Z,5.80
2019-01-29T12:08:03.132Z,6.00
2019-01-29T12:10:31.563Z,6.10
2019-01-29T12:12:59.978Z,6.20
2019-01-29T12:15:28.532Z,6.40
2019-01-29T12:17:56.934Z,6.60
2019-01-29T12:20:26.419Z,6.40
2019-01-29T12:22:54.972Z,6.50
2019-01-29T12:25:23.648Z,6.70
2019-01-29T12:27:52.116Z,6.60
2019-01-29T12:30:22.687Z,6.40
2019-01-29T12:32:51.953Z,6.40
2019-01-29T12:35:20.376Z,6.50
2019-01-29T12:37:48.840Z,6.60
2019-01-29T12:40:17.400Z,6.80
2019-01-29T12:42:45.809Z,6.50
2019-01-29T12:45:16.936Z,6.40
2019-01-29T12:47:45.568Z,6.40
2019-01-29T12:50:26.105Z,6.50
2019-01-29T12:53:04.713Z,6.20
2019-01-29T12:55:33.279Z,6.40
2019-01-29T12:58:01.685Z,6.60
2019-01-29T13:00:31.826Z,6.70
2019-01-29T13:03:00.229Z,6.60
2019-01-29T13:05:28.914Z,6.50
2019-01-29T13:07:57.315Z,6.30
2019-01-29T13:10:26.672Z,6.10
2019-01-29T13:12:55.527Z,6.20
2019-01-29T13:15:32.332Z,6.10
2019-01-29T13:18:01.768Z,6.10
2019-01-29T13:20:30.625Z,6.00
2019-01-29T13:22:59.088Z,5.90
2019-01-29T13:25:27.509Z,6.10
2019-01-29T13:27:55.908Z,6.00
2019-01-29T13:30:29.794Z,6.00
2019-01-29T13:32:58.342Z,6.10
2019-01-29T13:35:29.883Z,6.20
2019-01-29T13:37:58.294Z,6.30
2019-01-29T13:40:26.786Z,6.30
2019-01-29T13:42:55.188Z,6.30
2019-01-29T13:45:23.751Z,6.60
2019-01-29T13:47:52.298Z,6.70
2019-01-29T13:50:23.788Z,6.80
2019-01-29T13:52:52.193Z,7.00
2019-01-29T13:55:20.616Z,7.00
2019-01-29T13:57:49.261Z,7.20
2019-01-29T14:00:23.928Z,7.50
2019-01-29T14:02:52.347Z,7.60
2019-01-29T14:05:20.782Z,7.60
2019-01-29T14:07:49.189Z,7.70
2019-01-29T14:10:17.865Z,7.80
2019-01-29T14:12:46.361Z,7.70
2019-01-29T14:15:19.512Z,7.60
2019-01-29T14:17:48.310Z,7.50
2019-01-29T14:20:20.256Z,7.40
2019-01-29T14:22:49.522Z,7.00
2019-01-29T14:25:18.138Z,6.90
2019-01-29T14:27:46.535Z,6.90
2019-01-29T14:30:23.358Z,6.90
2019-01-29T14:32:51.756Z,7.00
2019-01-29T14:35:22.085Z,7.00
2019-01-29T14:37:59.286Z,7.00
2019-01-29T14:40:28.029Z,6.90
2019-01-29T14:42:56.507Z,6.90
2019-01-29T14:45:30.214Z,7.00
2019-01-29T14:47:58.642Z,7.00
2019-01-29T14:50:27.600Z,7.00
2019-01-29T14:52:56.102Z,7.00
2019-01-29T14:55:24.651Z,7.00
2019-01-29T14:57:53.320Z,7.00
2019-01-29T15:00:32.925Z,7.00
2019-01-29T15:03:01.447Z,6.90
2019-01-29T15:05:29.973Z,6.80
2019-01-29T15:07:58.390Z,6.80
2019-01-29T15:10:28.715Z,6.80
2019-01-29T15:12:57.214Z,6.70
2019-01-29T15:15:28.359Z,6.70
2019-01-29T15:17:58.417Z,6.70
2019-01-29T15:20:26.904Z,6.60
2019-01-29T15:22:55.466Z,6.60
2019-01-29T15:25:23.891Z,6.70
2019-01-29T15:27:52.376Z,6.70
2019-01-29T15:30:28.363Z,6.60
2019-01-29T15:32:56.792Z,6.60
2019-01-29T15:35:25.206Z,6.50
2019-01-29T15:37:54.698Z,6.40
2019-01-29T15:40:23.631Z,6.30
2019-01-29T15:42:52.588Z,6.20
2019-01-29T15:45:25.603Z,6.20
2019-01-29T15:47:54.032Z,6.20
2019-01-29T15:50:24.172Z,6.10
2019-01-29T15:52:52.598Z,5.90
2019-01-29T15:55:21.540Z,5.80
2019-01-29T15:57:50.107Z,5.70
2019-01-29T16:00:33.640Z,5.50
2019-01-29T16:03:02.306Z,5.30
2019-01-29T16:05:38.952Z,5.10
2019-01-29T16:08:10.108Z,5.00
2019-01-29T16:10:40.922Z,4.80
2019-01-29T16:13:09.495Z,4.70
2019-01-29T16:15:38.441Z,4.60
2019-01-29T16:18:07.300Z,4.50
2019-01-29T16:20:35.717Z,4.30
2019-01-29T16:23:04.434Z,4.20
2019-01-29T16:25:34.669Z,4.00
2019-01-29T16:28:03.091Z,3.80
2019-01-29T16:30:33.447Z,3.70
2019-01-29T16:33:01.891Z,3.50
2019-01-29T16:35:35.135Z,3.40
2019-01-29T16:38:04.174Z,3.30
2019-01-29T16:40:35.938Z,3.10
2019-01-29T16:43:04.596Z,3.10
2019-01-29T16:45:34.462Z,3.00
2019-01-29T16:48:04.152Z,2.90
2019-01-29T16:50:32.681Z,2.80
2019-01-29T16:53:01.153Z,2.70
2019-01-29T16:55:31.628Z,2.70
2019-01-29T16:57:59.721Z,2.60
2019-01-29T17:00:30.940Z,2.50
2019-01-29T17:02:59.650Z,2.50
2019-01-29T17:05:29.195Z,2.30
2019-01-29T17:07:57.998Z,2.30
2019-01-29T17:10:32.406Z,2.30
2019-01-29T17:13:00.893Z,2.30
2019-01-29T17:15:31.359Z,2.30
2019-01-29T17:18:01.134Z,2.30
2019-01-29T17:20:32.619Z,2.30
2019-01-29T17:23:01.119Z,2.30
2019-01-29T17:25:29.593Z,2.20
2019-01-29T17:27:58.092Z,2.10
2019-01-29T17:30:35.564Z,2.20
2019-01-29T17:33:04.547Z,2.10
2019-01-29T17:35:33.034Z,2.10
2019-01-29T17:38:01.458Z,2.10
2019-01-29T17:40:29.962Z,2.10
2019-01-29T17:42:58.395Z,2.10
2019-01-29T17:45:32.354Z,2.00
2019-01-29T17:48:00.863Z,2.00
2019-01-29T17:50:34.698Z,2.00
2019-01-29T17:53:03.135Z,1.90
2019-01-29T17:55:32.808Z,1.90
2019-01-29T17:58:01.232Z,1.90
2019-01-29T18:00:32.024Z,1.80
2019-01-29T18:03:00.924Z,1.70
2019-01-29T18:05:29.328Z,1.70
2019-01-29T18:07:57.852Z,1.70
2019-01-29T18:10:26.321Z,1.70
2019-01-29T18:12:55.734Z,1.80
2019-01-29T18:15:28.973Z,1.70
2019-01-29T18:17:57.846Z,1.60
2019-01-29T18:20:26.498Z,1.60
2019-01-29T18:22:54.913Z,1.60
2019-01-29T18:25:23.460Z,1.60
2019-01-29T18:28:00.985Z,1.50
2019-01-29T18:30:27.930Z,1.50
2019-01-29T18:32:56.356Z,1.50
2019-01-29T18:35:24.830Z,1.50
2019-01-29T18:37:53.250Z,1.40
2019-01-29T18:40:24.775Z,1.40
2019-01-29T18:42:53.267Z,1.30
2019-01-29T18:45:21.820Z,1.20
2019-01-29T18:47:50.229Z,1.20
2019-01-29T18:50:20.503Z,1.10
2019-01-29T18:52:48.917Z,1.10
2019-01-29T18:55:17.336Z,1.10
2019-01-29T18:57:45.874Z,1.10
2019-01-29T19:00:23.395Z,1.10
2019-01-29T19:02:51.892Z,1.10
2019-01-29T19:05:22.159Z,1.10
2019-01-29T19:07:50.651Z,1.10
2019-01-29T19:10:20.583Z,1.00
2019-01-29T19:12:49.828Z,0.90
2019-01-29T19:15:23.966Z,0.90
2019-01-29T19:17:52.477Z,0.80
2019-01-29T19:20:24.049Z,0.80
2019-01-29T19:22:52.680Z,0.80
2019-01-29T19:25:21.562Z,0.70
2019-01-29T19:27:50.163Z,0.60
2019-01-29T19:30:21.482Z,0.60
2019-01-29T19:32:49.984Z,0.60
2019-01-29T19:35:18.422Z,0.60
2019-01-29T19:37:46.892Z,0.50
2019-01-29T19:40:17.067Z,0.50
2019-01-29T19:42:45.484Z,0.50
2019-01-29T19:45:22.505Z,0.40
2019-01-29T19:47:51.044Z,0.40
2019-01-29T19:50:21.608Z,0.40
2019-01-29T19:52:50.466Z,0.40
2019-01-29T19:55:19.127Z,0.30
2019-01-29T19:57:47.676Z,0.40
2019-01-29T20:00:24.857Z,0.40
2019-01-29T20:02:53.427Z,0.40
2019-01-29T20:05:21.926Z,0.40
2019-01-29T20:07:50.410Z,0.40
2019-01-29T20:10:20.872Z,0.40
2019-01-29T20:12:49.534Z,0.40
2019-01-29T20:15:20.091Z,0.40
2019-01-29T20:17:49.663Z,0.40
2019-01-29T20:20:23.533Z,0.40
2019-01-29T20:22:51.932Z,0.40
2019-01-29T20:25:20.360Z,0.40
2019-01-29T20:27:48.783Z,0.40
2019-01-29T20:30:25.793Z,0.40
2019-01-29T20:32:54.328Z,0.40
2019-01-29T20:35:22.768Z,0.40
2019-01-29T20:37:51.170Z,0.40
2019-01-29T20:40:21.840Z,0.30
2019-01-29T20:42:50.311Z,0.30
2019-01-29T20:45:19.064Z,0.40
2019-01-29T20:47:47.559Z,0.30
2019-01-29T20:50:18.694Z,0.30
2019-01-29T20:52:47.137Z,0.30
2019-01-29T20:55:15.789Z,0.30
2019-01-29T20:57:44.393Z,0.30
2019-01-29T21:00:18.533Z,0.30
2019-01-29T21:02:47.021Z,0.20
2019-01-29T21:05:15.544Z,0.20
2019-01-29T21:07:44.055Z,0.10
2019-01-29T21:10:15.613Z,0.10
2019-01-29T21:12:44.037Z,0.10
2019-01-29T21:15:17.309Z,0.10
2019-01-29T21:17:45.925Z,0.10
2019-01-29T21:20:16.484Z,0.10
2019-01-29T21:22:45.150Z,0.10
2019-01-29T21:25:14.308Z,0.00
2019-01-29T21:27:42.799Z,0.00
2019-01-29T21:30:14.301Z,0.00
2019-01-29T21:32:42.704Z,0.00
2019-01-29T21:35:11.301Z,0.00
2019-01-29T21:37:39.701Z,0.00
2019-01-29T21:40:11.205Z,0.00
2019-01-29T21:42:39.619Z,0.00
2019-01-29T21:45:11.140Z,0.00
2019-01-29T21:47:39.612Z,0.00
2019-01-29T21:50:16.372Z,0.00
2019-01-29T21:52:44.855Z,0.00
2019-01-29T21:55:15.028Z,-0.10
2019-01-29T21:57:43.438Z,0.00
2019-01-29T22:00:21.202Z,0.00
2019-01-29T22:02:49.668Z,0.00
2019-01-29T22:05:18.232Z,-0.10
2019-01-29T22:07:46.670Z,-0.10
2019-01-29T22:10:16.903Z,0.00
2019-01-29T22:12:45.378Z,-0.10
2019-01-29T22:15:16.871Z,-0.20
2019-01-29T22:17:45.463Z,-0.20
2019-01-29T22:20:19.736Z,-0.20
2019-01-29T22:22:48.235Z,-0.20
2019-01-29T22:25:21.681Z,-0.20
2019-01-29T22:27:50.244Z,-0.20
2019-01-29T22:30:36.832Z,-0.10
2019-01-29T22:33:06.229Z,-0.10
2019-01-29T22:35:34.748Z,-0.20
2019-01-29T22:38:03.167Z,-0.20
2019-01-29T22:40:32.125Z,-0.20
2019-01-29T22:43:01.672Z,-0.20
2019-01-29T22:45:30.430Z,-0.20
2019-01-29T22:47:58.860Z,-0.20
2019-01-29T22:50:32.794Z,-0.30
2019-01-29T22:53:01.204Z,-0.30
2019-01-29T22:55:30.016Z,-0.30
2019-01-29T22:57:58.463Z,-0.30
2019-01-29T23:00:55.342Z,-0.40
2019-01-29T23:03:29.375Z,-0.40
2019-01-29T23:06:12.733Z,-0.30
2019-01-29T23:08:41.144Z,-0.40
2019-01-29T23:11:09.595Z,-0.40
2019-01-29T23:13:38.007Z,-0.40
2019-01-29T23:16:06.675Z,-0.40
2019-01-29T23:18:35.153Z,-0.40
2019-01-29T23:21:03.574Z,-0.40
2019-01-29T23:23:31.994Z,-0.30
2019-01-29T23:26:00.391Z,-0.30
2019-01-29T23:28:28.831Z,-0.30
2019-01-29T23:30:57.268Z,-0.30
2019-01-29T23:33:25.699Z,-0.40
2019-01-29T23:35:54.110Z,-0.40
2019-01-29T23:38:22.536Z,-0.40
2019-01-29T23:40:50.948Z,-0.40
2019-01-29T23:43:19.368Z,-0.40
2019-01-29T23:45:47.794Z,-0.40
2019-01-29T23:48:16.377Z,-0.40
2019-01-29T23:50:44.780Z,-0.40
2019-01-29T23:53:13.204Z,-0.30
2019-01-29T23:55:41.620Z,-0.30
2019-01-29T23:58:10.062Z,-0.30
